• Join FlightAware (Why Join?)
  • Login
  • US Flag 
05:40PM EDT


 

Airport Tracker/Info


-or-


 

Live Flight TrackerFlight Track Log ✈ DAL2226 ✈ 04-May-2012 ✈ KATL - KFLL

Flight Track Log - Related Links

Times and Time Zones

All times are in EDT time to prevent confusion due to time zone crossing. See the DAL2226 flight status page for this flight to view local times or setup timezone preferences in your user account.

Time Position Orientation Groundspeed Altitude Reporting Facility
EDT Latitude Longitude Course Direction KTS MPH feet Rate Location/Type
07:54AM 33.6333 -84.4667 228° Southwest 180 207 2,600  Level Atlanta TRACON
07:55AM 33.5833 -84.5333 195° South 246 283 5,100 3,060 Climbing Atlanta TRACON
07:57AM 33.5178 -84.5544 153° Southeast 276 318 9,300 3,360 Climbing Atlanta Center
07:58AM 33.4447 -84.5094 150° Southeast 287 330 12,400 2,700 Climbing Atlanta Center
07:59AM 33.3697 -84.4567 146° Southeast 307 353 14,700 1,800 Climbing Atlanta Center
08:00AM 33.2867 -84.3892 148° Southeast 352 405 16,100 1,740 Climbing Atlanta Center
08:01AM 33.1886 -84.3169 148° Southeast 399 459 18,200 2,040 Climbing Atlanta Center
08:02AM 33.0886 -84.2422 153° Southeast 425 489 20,200 1,980 Climbing Atlanta Center
08:03AM 32.9800 -84.1750 158° South 435 501 22,200 1,860 Climbing Atlanta Center
08:04AM 32.8592 -84.1181 161° South 449 517 24,000 1,740 Climbing Atlanta Center
08:06AM 32.5522 -83.9894 162° South 495 570 28,000 1,740 Climbing Jacksonville Center
08:07AM 32.4169 -83.9361 161° South 505 581 29,800 1,980 Climbing Jacksonville Center
08:08AM 32.2881 -83.8831 160° South 500 575 32,000 1,620 Climbing Jacksonville Center
08:09AM 32.1733 -83.8350 161° South 495 570 33,100 1,260 Climbing Jacksonville Center
08:10AM 32.0444 -83.7822 161° South 495 570 34,600 1,560 Climbing Jacksonville Center
08:11AM 31.9217 -83.7322 161° South 489 563 36,300 1,380 Climbing Jacksonville Center
08:12AM 31.7778 -83.6747 161° South 491 565 37,400 1,020 Climbing Jacksonville Center
08:13AM 31.6508 -83.6247 160° South 492 566 38,400 780 Climbing Jacksonville Center
08:14AM 31.5319 -83.5750 162° South 500 575 39,000 300 Climbing Jacksonville Center
08:15AM 31.4028 -83.5256 162° South 500 575 39,000  Level Jacksonville Center
08:16AM 31.2611 -83.4711 161° South 495 570 39,000  Level Jacksonville Center
08:17AM 31.1297 -83.4192 162° South 495 570 39,000  Level Jacksonville Center
08:18AM 31.0028 -83.3700 160° South 495 570 39,000  Level Jacksonville Center
08:19AM 30.8733 -83.3161 160° South 495 570 39,000  Level Jacksonville Center
08:20AM 30.7503 -83.2647 157° South 482 555 39,000  Level Jacksonville Center
08:21AM 30.6253 -83.2039 156° South 482 555 39,000  Level Jacksonville Center
08:22AM 30.5022 -83.1408 157° South 488 562 39,000  Level Jacksonville Center
08:23AM 30.3769 -83.0781 156° South 493 567 39,000  Level Jacksonville Center
08:24AM 30.2539 -83.0153 157° South 493 567 39,000  Level Jacksonville Center
08:25AM 30.1308 -82.9550 157° South 493 567 39,000  Level Jacksonville Center
08:26AM 30.0161 -82.8997 156° South 494 568 39,000  Level Jacksonville Center
08:27AM 29.8928 -82.8375 157° South 494 568 39,000  Level Jacksonville Center
08:28AM 29.7717 -82.7778 158° South 489 563 39,000  Level Jacksonville Center
08:29AM 29.6506 -82.7206 156° South 483 556 39,000  Level Jacksonville Center
08:30AM 29.5272 -82.6586 156° South 478 550 39,000  Level Jacksonville Center
08:31AM 29.4039 -82.5969 157° South 478 550 39,000  Level Jacksonville Center
08:32AM 29.2828 -82.5378 157° South 473 544 39,000  Level Jacksonville Center
08:33AM 29.1594 -82.4789 166° South 473 544 39,000  Level Jacksonville Center
08:34AM 29.0319 -82.4436 184° South 473 544 39,000  Level Jacksonville Center
08:35AM 28.9006 -82.4539 185° South 464 534 39,000  Level Jacksonville Center
08:36AM 28.7689 -82.4661 184° South 470 541 39,000  Level Jacksonville Center
08:37AM 28.6231 -82.4764 183° South 475 547 39,000  Level Jacksonville Center
08:38AM 28.4914 -82.4839 182° South 475 547 39,000  Level Jacksonville Center
08:39AM 28.3622 -82.4892 183° South 480 552 39,000  Level Jacksonville Center
08:41AM 28.0978 -82.5047 182° South 472 543 39,000  Level Miami Center
08:42AM 27.9661 -82.5100 164° South 478 550 39,000 -240 Level Miami Center
08:43AM 27.8344 -82.4681 162° South 478 550 38,600 -1,440 Descending Miami Center
08:44AM 27.6986 -82.4169 161° South 470 541 36,200 -2,580 Descending Miami Center
08:45AM 27.5856 -82.3739 163° South 475 547 33,500 -2,700 Descending Miami Center
08:46AM 27.4536 -82.3278 161° South 475 547 30,800 -2,280 Descending Miami Center
08:47AM 27.3139 -82.2722 147° Southeast 481 554 29,000 -1,800 Descending Miami Center
08:48AM 27.2000 -82.1897 135° Southeast 489 563 27,300 -2,220 Descending Miami Center
08:49AM 27.1019 -82.0803 133° Southeast 502 578 24,600 -1,680 Descending Miami Center
08:50AM 27.0078 -81.9689 136° Southeast 494 568 24,000 -660 Descending Miami Center
08:51AM 26.9131 -81.8669 135° Southeast 484 557 23,300 -780 Descending Miami Center
08:52AM 26.8208 -81.7631 134° Southeast 477 549 22,500 -840 Descending Miami Center
08:53AM 26.7322 -81.6617 136° Southeast 466 536 21,700 -780 Descending Miami Center
08:54AM 26.6517 -81.5747 135° Southeast 454 522 21,000 -720 Descending Miami Center
08:55AM 26.5608 -81.4736 134° Southeast 454 522 20,300 -1,080 Descending Miami Center
08:56AM 26.4661 -81.3656 135° Southeast 448 516 18,900 -2,520 Descending Miami Center
08:57AM 26.3833 -81.2742 136° Southeast 443 510 15,300 -3,660 Descending Miami Center
08:58AM 26.3025 -81.1878 137° Southeast 430 495 11,600 -3,300 Descending Miami Center
08:59AM 26.2539 -81.1375 135° Southeast 397 457 9,800 -1,380 Descending Miami Center
09:00AM 26.1911 -81.0681 135° Southeast 280 322 9,300 -900 Descending Miami Center
09:01AM 26.1383 -81.0083 120° Southeast 267 307 8,000 -1,140 Descending Miami Center
09:02AM 26.1008 -80.9353 107° East 265 305 7,000 -540 Descending Miami Center
09:03AM 26.0800 -80.8583 96° East 269 310 7,000  Level Miami Center
09:04AM 26.0717 -80.7747 83° East 266 306 7,000 -60 Level Miami Center
09:05AM 26.0800 -80.7011 95° East 217 250 6,900 -60 Descending Miami Center
09:06AM 26.0753 -80.6431 88° East 185 213 6,900 -300 Level Miami Center
09:07AM 26.0767 -80.5853 91° East 180 207 6,300 -480 Descending Miami Center
09:08AM 26.0761 -80.5253 91° East 179 206 6,000 -540 Descending Miami Center
09:09AM 26.0753 -80.4744 91° East 181 208 5,200 -960 Descending Miami Center
09:10AM 26.0747 -80.4164 88° East 182 209 4,200 -1,020 Descending Miami Center
09:11AM 26.0761 -80.3586 88° East 180 207 3,200 -960 Descending Miami Center
09:12AM 26.0775 -80.3033 94° East 172 198 2,300 -900 Descending Miami Center
09:13AM 26.0744 -80.2522 89° East 165 190 1,400 -840 Descending Miami Center
09:14AM 26.0753 -80.2083 89° East 138 159 700 -720 Descending Miami Center